Time;durP1;ratioP1;P1;durP2;ratioP2;P2;SDS_P1;SDS_P2;PMS_P1;PMS_P2;Temp;Humidity;BMP_temperature;BMP_pressure;BME280_temperature;BME280_humidity;BME280_pressure;Samples;Min_cycle;Max_cycle;Signal;HPM_P1;HPM_P2
2022/08/25 00:01:54;;;;;;;15.45;6.37;;;;;;;27.51;60.24;98148.87;4425631;32;20502;-83
2022/08/25 00:04:22;;;;;;;14.60;7.45;;;;;;;27.59;59.26;98146.22;4425986;32;20161;-83
2022/08/25 00:06:50;;;;;;;15.35;6.78;;;;;;;27.50;59.63;98147.22;4425895;32;20129;-83
2022/08/25 00:09:19;;;;;;;14.27;7.60;;;;;;;27.37;59.83;98155.72;4425674;32;20090;-83
2022/08/25 00:11:48;;;;;;;14.25;7.47;;;;;;;27.57;59.30;98145.56;4425963;32;20101;-83
2022/08/25 00:14:28;;;;;;;23.60;7.97;;;;;;;27.38;60.17;98144.09;4425695;32;20157;-83
2022/08/25 00:16:56;;;;;;;14.65;7.72;;;;;;;28.12;57.59;98142.84;4425459;32;20086;-83
2022/08/25 00:19:26;;;;;;;16.42;8.32;;;;;;;27.83;58.04;98145.31;4425792;32;20125;-83
2022/08/25 00:21:54;;;;;;;16.60;8.32;;;;;;;27.91;57.71;98151.41;4425888;32;20090;-83
2022/08/25 00:24:22;;;;;;;16.45;8.07;;;;;;;28.31;56.79;98141.63;4425481;32;20112;-83
2022/08/25 00:26:52;;;;;;;17.62;8.55;;;;;;;27.21;60.68;98148.59;4425772;32;20116;-83
2022/08/25 00:29:21;;;;;;;13.95;7.85;;;;;;;26.94;61.46;98139.19;4425212;32;20116;-83
2022/08/25 00:31:48;;;;;;;14.90;7.82;;;;;;;26.85;61.79;98142.81;4425739;32;20105;-83
2022/08/25 00:34:19;;;;;;;15.38;7.93;;;;;;;27.36;60.68;98141.63;4425620;32;20077;-83
2022/08/25 00:36:46;;;;;;;16.42;7.97;;;;;;;27.80;58.28;98135.88;4425433;32;20131;-83
2022/08/25 00:39:13;;;;;;;17.02;7.32;;;;;;;27.04;59.88;98145.16;4425589;32;20112;-83
2022/08/25 00:41:42;;;;;;;17.10;8.18;;;;;;;26.98;60.47;98140.50;4425724;32;20090;-83
2022/08/25 00:44:11;;;;;;;15.55;8.10;;;;;;;26.96;60.42;98137.19;4424038;32;20103;-83
2022/08/25 00:46:42;;;;;;;18.08;8.45;;;;;;;27.51;58.72;98147.03;4425708;32;20118;-83
2022/08/25 00:49:20;;;;;;;15.20;7.32;;;;;;;27.86;57.42;98142.31;4425416;32;20093;-83
2022/08/25 00:51:56;;;;;;;16.83;8.02;;;;;;;27.57;58.00;98138.44;4424310;32;20444;-82
2022/08/25 00:54:39;;;;;;;14.75;7.87;;;;;;;27.81;56.96;98145.50;4425628;32;20145;-83
2022/08/25 00:57:08;;;;;;;15.57;7.80;;;;;;;27.79;56.79;98134.22;4411736;32;20114;-82
2022/08/25 00:59:35;;;;;;;17.05;7.82;;;;;;;27.13;58.84;98146.00;4425229;32;20145;-83
2022/08/25 01:02:04;;;;;;;16.35;8.18;;;;;;;27.66;56.77;98144.56;4425643;32;20169;-83
2022/08/25 01:04:33;;;;;;;15.50;8.25;;;;;;;27.24;57.84;98148.28;4424046;32;20384;-83
2022/08/25 01:07:01;;;;;;;13.57;7.57;;;;;;;27.58;57.41;98144.56;4411594;32;20110;-83
2022/08/25 01:09:31;;;;;;;18.17;8.35;;;;;;;27.66;56.85;98137.44;4425339;32;20112;-83
2022/08/25 01:11:59;;;;;;;16.42;8.23;;;;;;;26.96;58.91;98145.12;4411678;32;20139;-83
2022/08/25 01:14:29;;;;;;;14.10;7.57;;;;;;;27.24;58.63;98142.16;4425351;32;20101;-83
2022/08/25 01:16:57;;;;;;;19.00;8.32;;;;;;;27.54;57.61;98148.53;4411879;32;20093;-83
2022/08/25 01:19:27;;;;;;;17.92;9.50;;;;;;;27.61;56.78;98139.72;4425028;32;20161;-83
2022/08/25 01:21:55;;;;;;;19.80;9.05;;;;;;;26.86;59.12;98146.28;4425510;32;20188;-83
2022/08/25 01:24:38;;;;;;;18.17;9.52;;;;;;;26.42;60.96;98142.13;4424097;32;20542;-83
2022/08/25 01:27:06;;;;;;;21.08;10.30;;;;;;;26.34;61.42;98141.25;4423957;32;20140;-83
2022/08/25 01:29:34;;;;;;;16.50;8.65;;;;;;;26.44;61.17;98140.16;4425262;32;20094;-83
2022/08/25 01:32:06;;;;;;;18.52;8.75;;;;;;;27.37;58.28;98139.81;4425282;32;20168;-83
2022/08/25 01:34:35;;;;;;;17.12;9.82;;;;;;;27.32;58.01;98145.59;4425450;32;20458;-83
2022/08/25 01:37:03;;;;;;;18.58;9.88;;;;;;;26.90;59.17;98143.13;4425380;32;20116;-83
2022/08/25 01:39:32;;;;;;;17.12;9.07;;;;;;;27.46;58.18;98135.31;4424955;32;20102;-83
2022/08/25 01:42:05;;;;;;;19.02;8.75;;;;;;;27.06;59.78;98137.88;4424197;32;20094;-83
2022/08/25 01:44:34;;;;;;;19.08;9.18;;;;;;;27.05;59.99;98138.88;4425146;32;20128;-83
2022/08/25 01:47:02;;;;;;;18.95;9.30;;;;;;;27.55;57.87;98129.00;4423882;32;20101;-83
2022/08/25 01:49:29;;;;;;;18.62;9.55;;;;;;;27.21;58.85;98135.34;4425010;32;20513;-83
2022/08/25 01:52:01;;;;;;;20.90;10.95;;;;;;;27.42;58.04;98134.00;4425172;32;20086;-83
2022/08/25 01:54:28;;;;;;;22.13;10.00;;;;;;;25.94;63.89;98124.28;4423590;32;20093;-83
2022/08/25 01:56:57;;;;;;;19.35;9.35;;;;;;;26.01;64.71;98130.59;4425172;32;20090;-83
2022/08/25 01:59:24;;;;;;;19.37;9.07;;;;;;;26.65;61.65;98128.25;4423635;32;20098;-82
2022/08/25 02:01:52;;;;;;;18.42;9.30;;;;;;;27.27;58.62;98139.16;4423599;32;20094;-83
2022/08/25 02:04:30;;;;;;;17.12;8.95;;;;;;;27.33;57.67;98139.34;4423974;32;20073;-83
2022/08/25 02:07:03;;;;;;;19.42;8.60;;;;;;;27.11;57.89;98140.00;4424281;32;20447;-83
2022/08/25 02:09:30;;;;;;;18.33;8.82;;;;;;;26.97;58.12;98136.19;4423477;32;20437;-83
2022/08/25 02:11:58;;;;;;;16.85;8.82;;;;;;;27.31;56.61;98135.19;4425065;32;20098;-83
2022/08/25 02:14:25;;;;;;;15.50;8.35;;;;;;;26.67;58.62;98134.22;4424561;32;20082;-82
2022/08/25 02:16:53;;;;;;;16.15;8.48;;;;;;;26.58;58.88;98143.97;4424947;32;20097;-83
2022/08/25 02:19:21;;;;;;;20.27;9.18;;;;;;;27.06;57.35;98137.88;4424868;32;20098;-83
2022/08/25 02:21:48;;;;;;;19.45;9.60;;;;;;;26.42;59.36;98138.66;4424527;32;20109;-83
2022/08/25 02:24:16;;;;;;;21.25;9.05;;;;;;;26.16;60.16;98130.84;4423556;32;20164;-83
2022/08/25 02:26:43;;;;;;;18.60;9.50;;;;;;;26.68;59.05;98135.88;4424835;32;20113;-83
2022/08/25 02:29:10;;;;;;;18.83;9.52;;;;;;;27.21;56.87;98130.06;4424313;32;20153;-83
2022/08/25 02:31:38;;;;;;;17.90;9.27;;;;;;;27.43;56.17;98127.69;4424849;32;20145;-83
2022/08/25 02:34:07;;;;;;;17.17;9.07;;;;;;;27.41;56.00;98127.03;4423552;32;20156;-83
2022/08/25 02:36:35;;;;;;;15.05;7.57;;;;;;;27.21;56.62;98134.53;4424447;32;20114;-83
2022/08/25 02:39:04;;;;;;;18.00;8.82;;;;;;;26.73;57.92;98133.56;4424592;32;20109;-83
2022/08/25 02:41:32;;;;;;;16.70;8.85;;;;;;;27.03;56.16;98130.28;4424596;32;20077;-83
2022/08/25 02:44:00;;;;;;;20.17;8.95;;;;;;;26.59;58.12;98132.41;4424055;32;20145;-83
2022/08/25 02:46:27;;;;;;;15.00;8.07;;;;;;;26.66;57.13;98125.44;4423373;32;20512;-83
2022/08/25 02:48:54;;;;;;;15.02;7.55;;;;;;;26.29;57.84;98125.87;4424306;32;20093;-83
2022/08/25 02:51:23;;;;;;;17.02;7.35;;;;;;;25.85;58.85;98118.19;4424192;32;20100;-83
2022/08/25 02:53:50;;;;;;;14.25;6.75;;;;;;;26.02;58.39;98116.41;4424377;32;20503;-83
2022/08/25 02:56:18;;;;;;;13.05;7.35;;;;;;;26.20;57.66;98125.03;4424408;32;20146;-83
2022/08/25 02:58:46;;;;;;;12.88;6.80;;;;;;;26.27;57.07;98127.88;4424073;32;20129;-83
2022/08/25 03:01:14;;;;;;;18.25;6.72;;;;;;;26.09;57.66;98124.53;4424522;32;20238;-83
2022/08/25 03:03:44;;;;;;;18.65;6.87;;;;;;;25.88;58.74;98117.03;4422838;32;20116;-83
2022/08/25 03:06:13;;;;;;;14.60;7.03;;;;;;;25.86;58.79;98114.56;4424334;32;20106;-83
2022/08/25 03:08:41;;;;;;;13.60;7.22;;;;;;;25.48;59.72;98120.28;4424015;32;20153;-83
2022/08/25 03:11:08;;;;;;;12.05;6.32;;;;;;;25.46;59.63;98119.63;4422722;32;20094;-83
2022/08/25 03:13:36;;;;;;;13.20;7.28;;;;;;;26.22;57.03;98116.94;4424091;32;20109;-82
2022/08/25 03:16:04;;;;;;;12.95;6.60;;;;;;;26.13;57.21;98107.34;4424116;32;20404;-83
2022/08/25 03:18:39;;;;;;;12.80;6.10;;;;;;;26.06;57.63;98116.91;4424005;32;20167;-83
2022/08/25 03:21:06;;;;;;;14.20;6.53;;;;;;;25.91;57.84;98106.13;4426298;32;20086;-83
2022/08/25 03:23:34;;;;;;;17.65;7.97;;;;;;;26.04;56.94;98114.41;4426223;32;20132;-83
2022/08/25 03:28:46;;;;;;;12.73;7.05;;;;;;;25.57;59.11;98114.88;4426211;32;20161;-83
2022/08/25 03:31:13;;;;;;;13.75;7.12;;;;;;;25.52;59.51;98116.34;4426204;32;20176;-83
2022/08/25 03:33:41;;;;;;;17.30;6.90;;;;;;;25.71;58.73;98115.31;4425794;32;20116;-83
2022/08/25 03:36:10;;;;;;;16.02;6.12;;;;;;;25.77;57.73;98115.50;4426126;32;20116;-83
2022/08/25 03:38:38;;;;;;;13.18;6.28;;;;;;;25.68;57.77;98119.06;4425754;32;20189;-83
2022/08/25 03:41:15;;;;;;;11.95;6.45;;;;;;;25.44;58.21;98125.06;4426096;32;20105;-83
2022/08/25 03:43:42;;;;;;;14.73;7.18;;;;;;;25.81;57.25;98118.66;4424901;32;20085;-83
2022/08/25 03:46:29;;;;;;;16.48;7.62;;;;;;;25.61;57.70;98124.16;4425824;32;20152;-83
2022/08/25 03:48:57;;;;;;;15.95;7.75;;;;;;;25.70;57.99;98117.13;4426093;32;20133;-83
2022/08/25 03:51:27;;;;;;;18.40;7.87;;;;;;;26.08;56.27;98117.59;4426082;32;20098;-83
2022/08/25 03:53:55;;;;;;;15.43;7.32;;;;;;;26.12;56.05;98113.63;4425634;32;20464;-83
2022/08/25 03:56:22;;;;;;;15.85;7.00;;;;;;;25.67;57.07;98110.31;4425997;32;20157;-83
2022/08/25 03:58:50;;;;;;;14.20;6.28;;;;;;;25.53;57.67;98107.44;4425656;32;20121;-83
2022/08/25 04:01:17;;;;;;;16.05;7.20;;;;;;;25.41;58.54;98108.69;4425692;32;20107;-83
2022/08/25 04:03:44;;;;;;;26.98;8.13;;;;;;;25.47;58.15;98116.00;4424727;32;20104;-83
2022/08/25 04:06:12;;;;;;;57.65;10.57;;;;;;;25.53;58.26;98110.91;4426044;32;20105;-83
2022/08/25 04:08:39;;;;;;;20.35;10.07;;;;;;;24.93;62.25;98115.31;4425335;32;20102;-83
2022/08/25 04:11:13;;;;;;;23.52;10.38;;;;;;;25.45;61.26;98121.44;4425938;32;20543;-83
2022/08/25 04:13:46;;;;;;;23.65;10.70;;;;;;;25.11;62.66;98120.59;4425528;32;20156;-83
2022/08/25 04:16:16;;;;;;;42.88;12.02;;;;;;;23.75;68.56;98124.22;4425922;32;20097;-83
2022/08/25 04:18:43;;;;;;;18.20;10.25;;;;;;;22.03;78.97;98125.09;4425780;32;20112;-83
2022/08/25 04:21:11;;;;;;;19.00;9.30;;;;;;;24.06;70.66;98130.00;4425427;32;20445;-83
2022/08/25 04:23:41;;;;;;;19.02;8.95;;;;;;;25.04;67.05;98125.66;4425747;32;20591;-83
2022/08/25 04:26:18;;;;;;;17.45;8.65;;;;;;;26.06;61.07;98125.69;4425856;32;20162;-83
2022/08/25 04:28:46;;;;;;;17.35;7.72;;;;;;;26.08;60.19;98131.63;4425328;32;20101;-83
2022/08/25 04:31:14;;;;;;;16.12;7.57;;;;;;;26.06;59.56;98125.69;4425333;32;20086;-83
2022/08/25 04:33:42;;;;;;;18.67;8.13;;;;;;;26.17;59.11;98128.03;4425584;32;20231;-83
2022/08/25 04:36:12;;;;;;;16.45;8.07;;;;;;;26.52;57.91;98132.22;4424228;32;20586;-83
2022/08/25 04:38:41;;;;;;;19.12;7.78;;;;;;;26.58;57.69;98127.25;4425666;32;20106;-83
2022/08/25 04:41:09;;;;;;;23.87;8.20;;;;;;;26.53;58.46;98133.06;4411917;32;20156;-83
2022/08/25 04:43:37;;;;;;;15.65;7.35;;;;;;;26.99;56.39;98136.84;4424152;32;20154;-83
2022/08/25 04:46:12;;;;;;;21.83;8.93;;;;;;;27.78;52.76;98126.47;4424488;32;20109;-83
2022/08/25 04:48:46;;;;;;;14.82;7.90;;;;;;;27.49;54.13;98124.38;4425279;32;20119;-83
2022/08/25 04:51:17;;;;;;;20.08;9.23;;;;;;;27.51;54.45;98123.19;4425546;32;20172;-83
2022/08/25 04:53:44;;;;;;;17.55;7.57;;;;;;;27.06;56.28;98137.88;4424467;32;20109;-83
2022/08/25 04:56:15;;;;;;;16.77;7.45;;;;;;;26.90;57.14;98135.19;4425253;32;20417;-83
2022/08/25 04:58:42;;;;;;;15.50;7.35;;;;;;;26.99;57.73;98141.31;4425311;32;20137;-82
2022/08/25 05:01:14;;;;;;;14.02;7.03;;;;;;;27.42;56.73;98134.81;4425585;32;20180;-83
2022/08/25 05:03:42;;;;;;;14.68;7.18;;;;;;;27.59;56.19;98128.47;4424070;32;20124;-82
2022/08/25 05:06:09;;;;;;;12.40;6.43;;;;;;;27.50;57.04;98133.97;4425567;32;20149;-83
2022/08/25 05:08:41;;;;;;;13.75;6.10;;;;;;;27.98;55.86;98142.78;4425457;32;20101;-83
2022/08/25 05:11:13;;;;;;;11.50;5.60;;;;;;;28.51;53.91;98140.16;4425255;32;20106;-83
2022/08/25 05:13:43;;;;;;;12.05;5.15;;;;;;;28.59;54.00;98146.38;4425374;32;20109;-83
2022/08/25 05:16:17;;;;;;;11.32;5.70;;;;;;;29.21;52.05;98140.91;4424330;32;20121;-83
2022/08/25 05:18:45;;;;;;;10.27;5.03;;;;;;;29.57;51.38;98135.75;4425098;32;20102;-83
2022/08/25 05:21:20;;;;;;;13.50;5.30;;;;;;;30.06;50.30;98138.63;4424316;32;20172;-83
2022/08/25 05:23:48;;;;;;;13.25;5.80;;;;;;;29.94;50.79;98138.28;4425012;32;20090;-83
2022/08/25 05:26:20;;;;;;;11.23;5.40;;;;;;;30.76;49.02;98137.97;4425356;32;20124;-83
2022/08/25 05:28:49;;;;;;;12.37;6.47;;;;;;;31.64;47.50;98136.56;4411625;32;20135;-83
2022/08/25 05:31:17;;;;;;;13.88;6.60;;;;;;;32.01;47.45;98141.66;4425034;32;20102;-84
2022/08/25 05:33:44;;;;;;;13.35;6.72;;;;;;;32.37;45.87;98131.53;4425365;32;20146;-84
2022/08/25 05:36:13;;;;;;;12.05;6.12;;;;;;;33.27;44.30;98135.50;4425517;32;20418;-83
2022/08/25 05:38:40;;;;;;;12.63;6.10;;;;;;;33.84;42.61;98141.97;4423678;32;20525;-83
2022/08/25 05:41:11;;;;;;;12.02;6.12;;;;;;;33.98;42.26;98144.62;4423455;32;20440;-83
2022/08/25 05:43:40;;;;;;;12.30;6.30;;;;;;;34.00;42.42;98139.88;4411243;32;20120;-83
2022/08/25 05:46:08;;;;;;;13.05;6.53;;;;;;;34.30;41.79;98142.81;4423838;32;20140;-84
2022/08/25 05:48:35;;;;;;;11.82;6.37;;;;;;;34.82;40.76;98152.38;4425084;32;20101;-84
2022/08/25 05:51:04;;;;;;;14.18;6.87;;;;;;;34.85;41.42;98148.44;4425292;32;20124;-84
2022/08/25 05:53:33;;;;;;;14.32;6.85;;;;;;;34.78;40.46;98145.84;4423471;32;20140;-84
2022/08/25 05:56:00;;;;;;;12.73;6.43;;;;;;;35.22;39.79;98144.03;4423905;32;20140;-84
2022/08/25 05:58:28;;;;;;;11.73;5.90;;;;;;;35.36;39.38;98146.38;4423958;32;20536;-84
2022/08/25 06:00:56;;;;;;;16.25;6.78;;;;;;;35.82;38.69;98153.12;4423519;32;20094;-84
2022/08/25 06:03:23;;;;;;;13.70;6.22;;;;;;;35.98;38.74;98150.91;4423975;32;20511;-84
2022/08/25 06:05:50;;;;;;;15.02;7.35;;;;;;;35.85;38.92;98144.62;4424802;32;20113;-84
2022/08/25 06:08:18;;;;;;;14.40;6.97;;;;;;;35.06;40.58;98143.53;4424914;32;20107;-84
2022/08/25 06:10:51;;;;;;;14.85;6.75;;;;;;;34.00;43.20;98147.91;4423636;32;20492;-84
2022/08/25 06:13:18;;;;;;;13.73;7.05;;;;;;;33.35;44.62;98140.66;4423886;32;20232;-83
2022/08/25 06:15:57;;;;;;;;;;;;;;;32.33;47.36;98140.19;4423940;32;20144;-83
2022/08/25 06:18:24;;;;;;;14.02;7.07;;;;;;;33.05;45.96;98153.62;4423109;32;20040;-81
2022/08/25 06:20:51;;;;;;;14.25;7.43;;;;;;;33.49;45.77;98154.00;4423805;32;20132;-77
2022/08/25 06:23:18;;;;;;;15.30;7.20;;;;;;;34.27;43.88;98153.97;4424096;32;20082;-77
2022/08/25 06:25:49;;;;;;;15.45;7.30;;;;;;;33.93;44.44;98156.81;4423933;32;20124;-77
2022/08/25 06:28:17;;;;;;;15.45;6.95;;;;;;;35.40;41.31;98162.03;4423766;32;20701;-77
2022/08/25 06:30:44;;;;;;;11.80;6.35;;;;;;;34.82;42.46;98162.28;4424312;32;20509;-77
2022/08/25 06:33:11;;;;;;;12.90;7.20;;;;;;;34.10;44.14;98153.62;4424778;32;20151;-77
2022/08/25 06:35:42;;;;;;;14.35;7.12;;;;;;;31.42;51.21;98158.16;4424216;32;20129;-77
2022/08/25 06:38:10;;;;;;;13.65;7.28;;;;;;;30.91;53.62;98150.38;4424714;32;20117;-77
2022/08/25 06:40:37;;;;;;;13.70;7.10;;;;;;;31.64;52.24;98157.88;4424655;32;20105;-77
2022/08/25 06:43:07;;;;;;;13.80;7.10;;;;;;;31.80;51.83;98151.44;4424322;32;20154;-77
2022/08/25 06:45:34;;;;;;;12.90;6.45;;;;;;;31.20;53.56;98152.91;4424462;32;20157;-77
2022/08/25 06:48:01;;;;;;;13.95;6.68;;;;;;;32.10;50.55;98153.81;4424307;32;20400;-77
2022/08/25 06:50:28;;;;;;;15.95;7.45;;;;;;;31.84;51.74;98160.69;4423157;32;20090;-77
2022/08/25 06:52:55;;;;;;;15.80;7.35;;;;;;;32.12;50.63;98155.28;4424798;32;20449;-77
2022/08/25 06:55:22;;;;;;;15.82;7.07;;;;;;;31.10;52.02;98149.72;4425585;32;20177;-77
2022/08/25 06:57:52;;;;;;;14.52;7.28;;;;;;;33.21;46.33;98155.06;4425597;32;20149;-77
2022/08/25 07:00:21;;;;;;;17.10;7.72;;;;;;;31.33;52.96;98152.16;4424690;32;20107;-77
2022/08/25 07:02:57;;;;;;;14.87;7.82;;;;;;;32.02;50.30;98154.00;4425593;32;20078;-77
2022/08/25 07:05:24;;;;;;;16.33;7.65;;;;;;;32.57;48.59;98150.28;4425639;32;20104;-77
2022/08/25 07:08:06;;;;;;;15.77;8.27;;;;;;;32.99;47.50;98158.97;4425850;32;20161;-76
2022/08/25 07:10:33;;;;;;;18.77;9.05;;;;;;;32.18;49.54;98153.62;4425261;32;20111;-77
2022/08/25 07:13:02;;;;;;;15.95;9.07;;;;;;;32.25;49.71;98151.81;4426278;32;20159;-77
2022/08/25 07:15:29;;;;;;;15.73;8.63;;;;;;;31.49;51.17;98159.03;4426043;32;20153;-76
2022/08/25 07:17:56;;;;;;;15.50;8.93;;;;;;;31.88;50.96;98158.44;4425990;32;20086;-76
2022/08/25 07:20:23;;;;;;;23.05;9.23;;;;;;;32.08;48.27;98158.53;4437597;32;20153;-76
2022/08/25 07:22:55;;;;;;;14.93;8.75;;;;;;;32.01;48.80;98155.00;4426349;32;20151;-77
2022/08/25 07:25:23;;;;;;;16.42;8.93;;;;;;;30.59;53.59;98162.34;4425993;32;20101;-76
2022/08/25 07:27:50;;;;;;;15.00;8.20;;;;;;;32.46;48.70;98158.88;4426307;32;20770;-76
2022/08/25 07:30:22;;;;;;;14.45;7.93;;;;;;;33.08;46.96;98160.41;4425681;32;20081;-76
2022/08/25 07:32:49;;;;;;;15.32;8.82;;;;;;;33.75;44.54;98171.84;4426194;32;20094;-76
2022/08/25 07:35:23;;;;;;;15.00;7.70;;;;;;;32.90;46.59;98157.53;4426173;32;20442;-77
2022/08/25 07:37:55;;;;;;;16.75;7.82;;;;;;;33.41;44.63;98157.75;4437162;32;20578;-76
2022/08/25 07:40:28;;;;;;;13.62;8.30;;;;;;;33.64;44.98;98162.63;4426083;32;20436;-76
2022/08/25 07:42:58;;;;;;;15.80;7.90;;;;;;;34.32;42.60;98154.13;4426155;32;20223;-76
2022/08/25 07:45:30;;;;;;;16.35;9.38;;;;;;;34.07;43.71;98156.72;4425634;32;20112;-76
2022/08/25 07:48:03;;;;;;;15.88;8.52;;;;;;;34.45;42.20;98159.44;4426188;32;20707;-76
2022/08/25 07:50:31;;;;;;;15.13;7.60;;;;;;;35.34;39.30;98161.06;4425972;32;20499;-76
2022/08/25 07:52:58;;;;;;;15.27;8.55;;;;;;;34.00;42.61;98158.59;4425827;32;20100;-77
2022/08/25 07:55:27;;;;;;;14.23;7.95;;;;;;;33.81;43.42;98154.94;4425816;32;20097;-77
2022/08/25 07:57:55;;;;;;;17.20;6.82;;;;;;;35.59;39.87;98159.16;4425998;32;20597;-76
2022/08/25 08:00:26;;;;;;;13.32;7.80;;;;;;;36.83;38.47;98162.38;4425352;32;20112;-76
2022/08/25 08:02:54;;;;;;;15.73;8.00;;;;;;;36.73;37.16;98157.53;4425965;32;20078;-76
2022/08/25 08:05:22;;;;;;;12.63;6.30;;;;;;;36.73;36.82;98159.38;4424907;32;20098;-76
2022/08/25 08:07:50;;;;;;;10.55;5.75;;;;;;;36.24;37.61;98161.28;4426040;32;20094;-76
2022/08/25 08:10:17;;;;;;;11.45;6.75;;;;;;;34.33;40.22;98158.44;4425686;32;20152;-76
2022/08/25 08:13:04;;;;;;;15.13;5.55;;;;;;;33.80;41.40;98156.78;4425544;32;20082;-76
2022/08/25 08:15:34;;;;;;;13.18;6.50;;;;;;;34.85;40.36;98168.03;4425657;32;20093;-76
2022/08/25 08:18:01;;;;;;;13.30;5.93;;;;;;;33.78;41.57;98166.06;4425982;32;20141;-76
2022/08/25 08:20:32;;;;;;;13.40;6.60;;;;;;;33.55;41.79;98162.03;4425478;32;20097;-76
2022/08/25 08:23:08;;;;;;;17.42;6.50;;;;;;;34.55;40.19;98164.31;4425898;32;20074;-76
2022/08/25 08:25:35;;;;;;;13.77;5.65;;;;;;;34.78;39.50;98167.28;4425663;32;20738;-76
2022/08/25 08:28:02;;;;;;;12.18;7.45;;;;;;;34.79;39.58;98167.06;4425490;32;20450;-76
2022/08/25 08:30:33;;;;;;;13.75;6.22;;;;;;;35.14;38.54;98166.59;4425707;32;20104;-76
2022/08/25 08:33:00;;;;;;;12.68;6.22;;;;;;;36.10;36.38;98170.59;4425757;32;20104;-77
2022/08/25 08:35:41;;;;;;;11.88;5.30;;;;;;;36.09;36.03;98167.06;4425655;32;20152;-77
2022/08/25 08:38:08;;;;;;;10.80;5.18;;;;;;;36.55;35.38;98159.44;4425843;32;20656;-77
2022/08/25 08:44:45;;;;;;;9.85;4.90;;;;;;;37.26;33.85;98155.84;4425348;32;20136;-77
2022/08/25 08:47:21;;;;;;;10.52;5.40;;;;;;;37.12;34.38;98157.16;4425346;32;20110;-77
2022/08/25 08:50:00;;;;;;;;;;;;;;;36.65;34.85;98149.78;4424767;32;20165;-77
2022/08/25 08:52:54;;;;;;;9.88;4.72;;;;;;;35.79;35.88;98158.94;4425715;32;19981;-78
2022/08/25 08:55:39;;;;;;;10.27;5.05;;;;;;;37.29;32.39;98158.91;4425112;32;20153;-77
2022/08/25 08:58:10;;;;;;;10.68;4.90;;;;;;;37.63;32.11;98153.72;4424441;32;20105;-76
2022/08/25 09:00:46;;;;;;;9.23;4.45;;;;;;;38.42;30.99;98162.09;4425272;32;20121;-77
2022/08/25 09:03:42;;;;;;;10.45;4.72;;;;;;;37.97;31.52;98156.63;4425215;32;20090;-76
2022/08/25 09:06:24;;;;;;;9.25;4.30;;;;;;;36.38;34.13;98152.06;4424616;32;20116;-76
2022/08/25 09:08:52;;;;;;;9.85;4.68;;;;;;;35.55;34.55;98144.56;4425138;32;20448;-77
2022/08/25 09:11:44;;;;;;;8.35;4.62;;;;;;;36.33;34.12;98148.37;4424385;32;20121;-76
2022/08/25 09:14:20;;;;;;;11.68;4.55;;;;;;;36.42;33.44;98141.66;4425431;32;20183;-76
2022/08/25 09:17:04;;;;;;;11.38;5.15;;;;;;;36.66;33.83;98137.97;4425183;32;20081;-76
2022/08/25 09:19:44;;;;;;;10.30;4.68;;;;;;;36.40;34.52;98143.75;4424259;32;20163;-77
2022/08/25 09:22:22;;;;;;;9.80;4.95;;;;;;;36.80;34.45;98135.91;4425504;32;20376;-77
2022/08/25 09:25:17;;;;;;;9.48;4.72;;;;;;;36.08;35.27;98135.91;4425350;32;20086;-77
2022/08/25 09:28:07;;;;;;;9.15;4.70;;;;;;;37.05;33.15;98130.34;4425573;32;20153;-77
2022/08/25 09:30:58;;;;;;;14.25;5.35;;;;;;;37.10;32.73;98126.94;4424910;32;20428;-77
2022/08/25 09:33:28;;;;;;;12.13;5.15;;;;;;;36.28;35.33;98129.44;4423304;32;20119;-76
2022/08/25 09:35:55;;;;;;;11.88;5.05;;;;;;;36.12;35.37;98126.31;4425288;32;20169;-77
2022/08/25 09:38:25;;;;;;;10.95;4.18;;;;;;;35.07;37.03;98118.37;4424894;32;20113;-76
2022/08/25 09:40:56;;;;;;;10.30;4.57;;;;;;;35.49;34.76;98115.09;4425315;32;20149;-77
2022/08/25 09:43:43;;;;;;;10.75;4.60;;;;;;;33.99;38.93;98114.12;4425152;32;20089;-76
2022/08/25 09:46:19;;;;;;;8.85;4.07;;;;;;;34.37;37.05;98114.97;4424032;32;20753;-76
2022/08/25 09:48:54;;;;;;;11.73;4.80;;;;;;;33.84;38.76;98109.03;4424099;32;20108;-76
2022/08/25 09:51:31;;;;;;;9.70;5.03;;;;;;;33.40;39.93;98109.81;4424884;32;20157;-76
2022/08/25 09:54:11;;;;;;;10.40;4.93;;;;;;;33.81;39.09;98102.25;4425182;32;20113;-77
2022/08/25 09:56:56;;;;;;;13.50;5.10;;;;;;;34.05;38.07;98115.97;4425091;32;20151;-77
2022/08/25 09:59:33;;;;;;;9.48;4.75;;;;;;;35.73;35.24;98108.00;4423284;32;20177;-77
2022/08/25 10:02:15;;;;;;;9.02;4.28;;;;;;;35.03;35.71;98105.66;4425279;32;20447;-77
2022/08/25 10:04:44;;;;;;;7.75;4.03;;;;;;;35.37;35.68;98104.25;4424779;32;20105;-76
2022/08/25 10:07:21;;;;;;;8.18;3.75;;;;;;;34.77;36.67;98106.66;4425068;32;20109;-76
2022/08/25 10:10:00;;;;;;;9.40;4.62;;;;;;;36.01;35.39;98107.47;4436531;32;20078;-76
2022/08/25 10:12:43;;;;;;;8.48;3.83;;;;;;;35.14;35.34;98101.41;4423636;32;20125;-76
2022/08/25 10:15:20;;;;;;;8.60;3.80;;;;;;;34.96;34.96;98089.59;4424935;32;20109;-76
2022/08/25 10:18:15;;;;;;;8.02;3.80;;;;;;;35.44;33.80;98090.81;4425092;32;20441;-76
2022/08/25 10:20:42;;;;;;;;;;;;;;;34.32;35.03;98087.16;4424931;32;20550;-76
2022/08/25 10:23:13;;;;;;;8.10;3.80;;;;;;;35.12;34.51;98084.72;4424897;32;19992;-76
2022/08/25 10:25:45;;;;;;;9.75;3.70;;;;;;;35.14;33.34;98082.66;4424429;32;20154;-76
2022/08/25 10:28:39;;;;;;;8.65;3.50;;;;;;;34.35;34.90;98089.41;4423015;32;20108;-76
2022/08/25 10:31:13;;;;;;;7.78;3.70;;;;;;;36.14;31.00;98081.25;4424846;32;20129;-76
2022/08/25 10:34:01;;;;;;;8.93;4.22;;;;;;;34.92;34.62;98087.59;4424534;32;20455;-76
2022/08/25 10:36:36;;;;;;;10.20;4.32;;;;;;;37.35;30.77;98082.66;4424717;32;20153;-76
2022/08/25 10:39:03;;;;;;;7.55;3.80;;;;;;;37.35;32.62;98092.59;4423502;32;20515;-76
2022/08/25 10:41:56;;;;;;;8.20;4.00;;;;;;;37.57;32.34;98096.28;4424486;32;20148;-77
2022/08/25 10:48:12;;;;;;;9.30;3.90;;;;;;;36.13;32.05;98071.56;4423402;32;20173;-77
2022/08/25 10:50:43;;;;;;;8.50;3.65;;;;;;;37.21;31.74;98083.09;4435999;32;20132;-77
2022/08/25 10:53:21;;;;;;;8.93;3.90;;;;;;;35.07;33.67;98085.38;4423488;32;20070;-77
2022/08/25 10:55:54;;;;;;;6.50;3.40;;;;;;;34.66;33.56;98080.56;4422964;32;20169;-77
2022/08/25 10:58:43;;;;;;;7.95;3.72;;;;;;;34.33;35.16;98083.44;4424397;32;20098;-77
2022/08/25 11:01:37;;;;;;;6.65;3.28;;;;;;;35.64;33.55;98075.31;4423926;32;20160;-76
2022/08/25 11:04:09;;;;;;;11.02;3.75;;;;;;;35.84;31.91;98078.56;4424272;32;20159;-77
2022/08/25 11:06:54;;;;;;;6.80;3.30;;;;;;;36.64;30.39;98075.56;4424331;32;20457;-77
2022/08/25 11:09:27;;;;;;;10.38;3.80;;;;;;;36.17;29.92;98058.53;4422845;32;20169;-77
2022/08/25 11:11:59;;;;;;;6.80;3.08;;;;;;;36.83;30.53;98062.88;4424304;32;20188;-77
2022/08/25 11:14:59;;;;;;;6.20;2.53;;;;;;;37.00;29.70;98062.97;4424098;32;20090;-77
2022/08/25 11:18:04;;;;;;;6.40;3.15;;;;;;;36.14;31.21;98059.78;4414281;32;20435;-77
2022/08/25 11:20:45;;;;;;;7.25;3.30;;;;;;;36.43;29.26;98062.69;4424191;32;20471;-76
2022/08/25 11:23:46;;;;;;;7.32;2.97;;;;;;;36.68;29.42;98057.91;4423937;32;20109;-76
2022/08/25 11:26:16;;;;;;;7.55;3.22;;;;;;;35.76;31.07;98057.41;4421195;32;20082;-78
2022/08/25 11:29:09;;;;;;;8.07;3.10;;;;;;;36.21;30.56;98049.75;4422426;32;20105;-76
2022/08/25 11:31:41;;;;;;;6.25;2.92;;;;;;;36.32;30.76;98050.84;4422804;32;20106;-77
2022/08/25 11:34:10;;;;;;;8.18;3.10;;;;;;;36.81;28.88;98054.22;4423707;32;20108;-78
2022/08/25 11:36:42;;;;;;;8.93;3.42;;;;;;;36.12;31.16;98043.06;4423701;32;20505;-78
2022/08/25 11:39:41;;;;;;;7.53;3.15;;;;;;;35.84;31.59;98049.03;4422790;32;20098;-78
2022/08/25 11:42:25;;;;;;;8.32;3.55;;;;;;;36.42;31.11;98042.25;4409743;32;20093;-78
2022/08/25 11:45:31;;;;;;;8.68;3.72;;;;;;;37.39;29.23;98034.56;4424546;32;20210;-79
2022/08/25 11:48:20;;;;;;;9.00;3.45;;;;;;;36.32;31.86;98029.34;4426021;32;20081;-79
2022/08/25 11:50:54;;;;;;;10.88;3.97;;;;;;;37.60;29.55;98025.00;4425726;32;20103;-79
2022/08/25 11:53:31;;;;;;;8.70;3.70;;;;;;;36.78;29.74;98025.91;4426063;32;20094;-79
2022/08/25 11:56:03;;;;;;;9.73;4.03;;;;;;;36.39;31.57;98021.22;4424909;32;20124;-81
2022/08/25 11:58:38;;;;;;;9.60;4.43;;;;;;;34.84;33.20;98012.78;4424589;32;20155;-80
2022/08/25 12:01:34;;;;;;;9.35;3.97;;;;;;;35.44;32.88;98018.38;4425807;32;20097;-78